Time;durP1;ratioP1;P1;durP2;ratioP2;P2;SDS_P1;SDS_P2;PMS_P1;PMS_P2;Temp;Humidity;BMP_temperature;BMP_pressure;BME280_temperature;BME280_humidity;BME280_pressure;Samples;Min_cycle;Max_cycle;Signal;HPM_P1;HPM_P2
2024/02/08 00:02:08;;;;;;;49.97;33.57;;;;;;;;;;4969092;28;20412;-50
2024/02/08 00:04:37;;;;;;;55.40;33.63;;;;;;;;;;4969473;28;20620;-47
2024/02/08 00:07:03;;;;;;;52.88;31.58;;;;;;;;;;4952984;28;20396;-47
2024/02/08 00:09:29;;;;;;;55.37;33.77;;;;;;;;;;4964017;28;20110;-46
2024/02/08 00:11:55;;;;;;;51.55;31.23;;;;;;;;;;4969690;28;20335;-48
2024/02/08 00:14:23;;;;;;;54.72;35.05;;;;;;;;;;4972258;28;20074;-51
2024/02/08 00:16:52;;;;;;;52.65;32.20;;;;;;;;;;4971899;28;20022;-46
2024/02/08 00:19:18;;;;;;;49.10;31.90;;;;;;;;;;4972234;28;20034;-50
2024/02/08 00:21:44;;;;;;;49.28;32.28;;;;;;;;;;4954555;28;20042;-51
2024/02/08 00:24:10;;;;;;;50.47;31.73;;;;;;;;;;4963917;28;20035;-50
2024/02/08 00:26:37;;;;;;;46.88;32.40;;;;;;;;;;4952420;29;20174;-48
2024/02/08 00:29:03;;;;;;;45.70;31.75;;;;;;;;;;4956452;28;20105;-49
2024/02/08 00:31:29;;;;;;;44.63;30.15;;;;;;;;;;4952402;28;20019;-47
2024/02/08 00:33:56;;;;;;;53.22;31.77;;;;;;;;;;4954979;28;20408;-47
2024/02/08 00:36:22;;;;;;;53.97;33.75;;;;;;;;;;4956077;28;20192;-48
2024/02/08 00:38:48;;;;;;;49.97;33.63;;;;;;;;;;4963247;28;20082;-48
2024/02/08 00:41:15;;;;;;;58.22;33.67;;;;;;;;;;4953871;28;20065;-48
2024/02/08 00:43:41;;;;;;;52.65;34.45;;;;;;;;;;4970940;28;20420;-48
2024/02/08 00:46:07;;;;;;;64.40;34.17;;;;;;;;;;4967578;28;20027;-50
2024/02/08 00:48:33;;;;;;;50.40;33.90;;;;;;;;;;4965793;28;20026;-46
2024/02/08 00:50:59;;;;;;;54.97;33.45;;;;;;;;;;4972892;28;20082;-48
2024/02/08 00:53:26;;;;;;;53.10;33.40;;;;;;;;;;4955852;28;20423;-47
2024/02/08 00:55:52;;;;;;;53.78;34.55;;;;;;;;;;4972540;28;20034;-48
2024/02/08 00:58:18;;;;;;;56.33;35.07;;;;;;;;;;4960406;28;20031;-48
2024/02/08 01:00:44;;;;;;;52.90;32.97;;;;;;;;;;4972883;28;20035;-49
2024/02/08 01:03:13;;;;;;;50.87;33.90;;;;;;;;;;4963896;28;20067;-48
2024/02/08 01:05:39;;;;;;;53.45;33.42;;;;;;;;;;4952187;28;20090;-49
2024/02/08 01:08:07;;;;;;;58.13;36.30;;;;;;;;;;4953901;28;20479;-49
2024/02/08 01:10:33;;;;;;;52.38;31.48;;;;;;;;;;4953533;29;20043;-48
2024/02/08 01:13:00;;;;;;;52.20;32.45;;;;;;;;;;4953451;29;20505;-48
2024/02/08 01:15:26;;;;;;;55.42;32.95;;;;;;;;;;4963344;28;20027;-47
2024/02/08 01:17:53;;;;;;;55.33;34.55;;;;;;;;;;4959447;28;20031;-47
2024/02/08 01:20:22;;;;;;;50.50;34.72;;;;;;;;;;4976580;28;20035;-47
2024/02/08 01:22:49;;;;;;;55.70;34.22;;;;;;;;;;4976583;28;20105;-46
2024/02/08 01:25:16;;;;;;;57.85;34.17;;;;;;;;;;4975264;28;20039;-46
2024/02/08 01:27:43;;;;;;;51.47;31.85;;;;;;;;;;4975297;28;20034;-47
2024/02/08 01:30:10;;;;;;;50.10;31.08;;;;;;;;;;4975486;28;20047;-49
2024/02/08 01:32:37;;;;;;;50.90;32.45;;;;;;;;;;4968049;28;20503;-52
2024/02/08 01:35:03;;;;;;;51.90;32.17;;;;;;;;;;4975371;28;20038;-49
2024/02/08 01:37:29;;;;;;;57.17;33.80;;;;;;;;;;4960951;28;20038;-49
2024/02/08 01:39:56;;;;;;;57.55;35.28;;;;;;;;;;4969450;28;20031;-52
2024/02/08 01:42:22;;;;;;;49.08;32.65;;;;;;;;;;4958838;28;20110;-51
2024/02/08 01:44:55;;;;;;;49.67;33.45;;;;;;;;;;4957128;28;20031;-47
2024/02/08 01:47:21;;;;;;;42.65;30.02;;;;;;;;;;4959366;28;20027;-49
2024/02/08 01:49:48;;;;;;;57.67;32.97;;;;;;;;;;4955558;28;20399;-47
2024/02/08 01:52:18;;;;;;;61.15;32.30;;;;;;;;;;4961241;28;20088;-49
2024/02/08 01:54:47;;;;;;;50.75;31.63;;;;;;;;;;4966450;28;20062;-50
2024/02/08 01:57:13;;;;;;;54.67;32.80;;;;;;;;;;4960094;28;20038;-48
2024/02/08 01:59:40;;;;;;;52.10;29.67;;;;;;;;;;4955465;28;20503;-47
2024/02/08 02:02:07;;;;;;;47.88;31.88;;;;;;;;;;4970042;28;20360;-49
2024/02/08 02:04:39;;;;;;;56.38;32.70;;;;;;;;;;4974602;28;20154;-47
2024/02/08 02:07:06;;;;;;;46.33;30.83;;;;;;;;;;4963731;28;20055;-51
2024/02/08 02:09:32;;;;;;;50.87;32.67;;;;;;;;;;4968159;28;20034;-47
2024/02/08 02:12:02;;;;;;;55.13;32.43;;;;;;;;;;4962428;28;20552;-48
2024/02/08 02:14:30;;;;;;;53.03;33.78;;;;;;;;;;4966184;28;20271;-51
2024/02/08 02:17:08;;;;;;;49.67;30.42;;;;;;;;;;4964756;28;20024;-48
2024/02/08 02:19:34;;;;;;;49.90;30.92;;;;;;;;;;4972389;28;20030;-49
2024/02/08 02:22:00;;;;;;;53.70;32.67;;;;;;;;;;4962652;28;20053;-51
2024/02/08 02:24:27;;;;;;;51.92;32.25;;;;;;;;;;4975552;28;20072;-49
2024/02/08 02:26:57;;;;;;;43.60;31.27;;;;;;;;;;4974885;28;20027;-47
2024/02/08 02:29:24;;;;;;;47.10;31.55;;;;;;;;;;4957890;28;20042;-47
2024/02/08 02:31:51;;;;;;;52.03;31.85;;;;;;;;;;4970570;28;20519;-47
2024/02/08 02:34:18;;;;;;;51.17;31.77;;;;;;;;;;4969776;28;20030;-47
2024/02/08 02:36:44;;;;;;;52.25;31.27;;;;;;;;;;4960001;28;20039;-48
2024/02/08 02:39:13;;;;;;;54.88;32.42;;;;;;;;;;4967285;28;20031;-48
2024/02/08 02:41:42;;;;;;;56.65;31.52;;;;;;;;;;4967707;28;20027;-48
2024/02/08 02:44:09;;;;;;;58.40;30.05;;;;;;;;;;4955403;28;20031;-50
2024/02/08 02:46:38;;;;;;;49.17;30.13;;;;;;;;;;4964153;28;20098;-49
2024/02/08 02:49:05;;;;;;;46.33;29.00;;;;;;;;;;4960749;28;20066;-47
2024/02/08 02:51:31;;;;;;;47.90;30.20;;;;;;;;;;4974616;28;20027;-51
2024/02/08 02:54:01;;;;;;;52.20;34.17;;;;;;;;;;4974714;28;20081;-49
2024/02/08 02:56:28;;;;;;;48.65;31.85;;;;;;;;;;4956475;28;20088;-47
2024/02/08 02:58:57;;;;;;;47.60;29.35;;;;;;;;;;4962119;28;20056;-48
2024/02/08 03:01:26;;;;;;;40.13;27.23;;;;;;;;;;4958110;28;20522;-48
2024/02/08 03:03:53;;;;;;;45.50;28.58;;;;;;;;;;4970197;28;20034;-48
2024/02/08 03:06:19;;;;;;;53.97;30.48;;;;;;;;;;4957552;28;20436;-50
2024/02/08 03:08:46;;;;;;;42.85;27.73;;;;;;;;;;4959071;28;20085;-48
2024/02/08 03:11:13;;;;;;;48.40;29.75;;;;;;;;;;4956599;28;20038;-47
2024/02/08 03:13:40;;;;;;;49.67;30.50;;;;;;;;;;4956428;28;20031;-49
2024/02/08 03:16:09;;;;;;;59.10;33.38;;;;;;;;;;4958603;28;20035;-48
2024/02/08 03:18:43;;;;;;;49.97;31.58;;;;;;;;;;4955189;28;20105;-50
2024/02/08 03:21:21;;;;;;;44.35;29.65;;;;;;;;;;4955341;28;20404;-49
2024/02/08 03:23:48;;;;;;;46.30;30.75;;;;;;;;;;4960570;28;20549;-48
2024/02/08 03:26:18;;;;;;;54.00;31.23;;;;;;;;;;4960260;28;20027;-49
2024/02/08 03:28:45;;;;;;;45.58;28.23;;;;;;;;;;4955159;28;20055;-48
2024/02/08 03:31:14;;;;;;;55.92;31.85;;;;;;;;;;4958486;28;20086;-49
2024/02/08 03:33:43;;;;;;;46.42;32.25;;;;;;;;;;4962294;28;20039;-48
2024/02/08 03:36:09;;;;;;;47.95;30.58;;;;;;;;;;4972613;28;20042;-47
2024/02/08 03:38:37;;;;;;;51.95;31.45;;;;;;;;;;4970689;28;20061;-50
2024/02/08 03:41:03;;;;;;;51.22;31.17;;;;;;;;;;4967539;28;20086;-46
2024/02/08 03:43:32;;;;;;;50.37;30.73;;;;;;;;;;4967111;28;20535;-48
2024/02/08 03:46:01;;;;;;;48.50;27.42;;;;;;;;;;4966319;28;20027;-48
2024/02/08 03:48:28;;;;;;;46.70;27.95;;;;;;;;;;4960247;28;20023;-50
2024/02/08 03:51:00;;;;;;;;;;;;;;;;;;4964085;28;20615;-46
2024/02/08 03:53:26;;;;;;;45.45;27.83;;;;;;;;;;4970994;28;19910;-47
2024/02/08 03:55:55;;;;;;;43.25;27.55;;;;;;;;;;4953212;28;20499;-48
2024/02/08 03:58:23;;;;;;;39.22;26.10;;;;;;;;;;4964591;28;20035;-47
2024/02/08 04:00:53;;;;;;;39.58;25.70;;;;;;;;;;4971654;28;20110;-46
2024/02/08 04:06:26;;;;;;;44.60;28.20;;;;;;;;;;4954162;28;20031;-49
2024/02/08 04:09:08;;;;;;;38.60;24.02;;;;;;;;;;4954197;28;20122;-47
2024/02/08 04:53:31;;;;;;;37.25;24.15;;;;;;;;;;4998271;28;20513;-53
2024/02/08 04:55:57;;;;;;;39.28;26.42;;;;;;;;;;4986598;28;20569;-51
2024/02/08 04:58:23;;;;;;;38.70;26.33;;;;;;;;;;4981478;28;20054;-45
2024/02/08 05:00:51;;;;;;;53.40;32.47;;;;;;;;;;4986244;28;20114;-48
2024/02/08 05:03:19;;;;;;;63.13;37.80;;;;;;;;;;4991917;28;20034;-51
2024/02/08 05:05:46;;;;;;;59.90;36.65;;;;;;;;;;4976644;28;20026;-50
2024/02/08 05:08:12;;;;;;;54.95;35.25;;;;;;;;;;4983205;28;20027;-53
2024/02/08 05:10:38;;;;;;;56.25;35.67;;;;;;;;;;4984634;28;20061;-52
2024/02/08 05:13:05;;;;;;;51.05;32.58;;;;;;;;;;4988824;28;20039;-47
2024/02/08 05:15:31;;;;;;;64.97;35.60;;;;;;;;;;4971926;28;20447;-48
2024/02/08 05:17:57;;;;;;;52.63;33.08;;;;;;;;;;4981491;28;20034;-48
2024/02/08 05:20:25;;;;;;;59.77;35.07;;;;;;;;;;4990023;28;20121;-52
2024/02/08 05:22:51;;;;;;;45.88;27.73;;;;;;;;;;4968596;28;20081;-47
2024/02/08 05:25:21;;;;;;;37.92;25.85;;;;;;;;;;4972211;28;20031;-47
2024/02/08 05:27:47;;;;;;;39.92;26.77;;;;;;;;;;4981623;28;20029;-48
2024/02/08 05:30:19;;;;;;;54.83;29.02;;;;;;;;;;4990644;28;20035;-47
2024/02/08 05:32:45;;;;;;;47.42;28.90;;;;;;;;;;4990157;28;20038;-52
2024/02/08 05:35:13;;;;;;;34.28;22.88;;;;;;;;;;4991819;28;20089;-54
2024/02/08 05:37:39;;;;;;;42.08;27.48;;;;;;;;;;4983418;28;20085;-49
2024/02/08 05:40:06;;;;;;;40.33;27.67;;;;;;;;;;4972558;28;20476;-50
2024/02/08 05:42:33;;;;;;;43.90;27.67;;;;;;;;;;4979641;28;20437;-50
2024/02/08 05:45:18;;;;;;;34.70;24.15;;;;;;;;;;4990575;28;20025;-51
2024/02/08 05:47:45;;;;;;;34.20;23.02;;;;;;;;;;4989087;28;20034;-49
2024/02/08 05:50:21;;;;;;;31.85;21.45;;;;;;;;;;4974623;28;20037;-49
2024/02/08 05:52:48;;;;;;;40.00;25.52;;;;;;;;;;4975110;28;20101;-50
2024/02/08 05:55:14;;;;;;;38.65;26.27;;;;;;;;;;4987795;28;20028;-48
2024/02/08 05:57:44;;;;;;;38.75;25.20;;;;;;;;;;4985321;28;20372;-49
2024/02/08 06:00:14;;;;;;;38.42;25.10;;;;;;;;;;4972298;28;20050;-49
2024/02/08 06:02:46;;;;;;;31.77;21.10;;;;;;;;;;4975835;28;20037;-50
2024/02/08 06:05:17;;;;;;;34.58;20.65;;;;;;;;;;4975792;28;20105;-49
2024/02/08 06:07:56;;;;;;;29.23;20.40;;;;;;;;;;4976997;28;20077;-50
2024/02/08 06:10:23;;;;;;;26.10;17.48;;;;;;;;;;4975930;28;20058;-48
2024/02/08 06:12:59;;;;;;;33.13;17.90;;;;;;;;;;4974637;28;20074;-47
2024/02/08 06:15:32;;;;;;;35.70;20.58;;;;;;;;;;4975669;28;20035;-49
2024/02/08 06:18:06;;;;;;;34.22;22.08;;;;;;;;;;4983981;28;20030;-48
2024/02/08 06:20:43;;;;;;;34.72;23.85;;;;;;;;;;4981828;28;20039;-47
2024/02/08 06:23:16;;;;;;;37.72;22.10;;;;;;;;;;4975485;28;20055;-50
2024/02/08 06:25:45;;;;;;;50.05;27.88;;;;;;;;;;4989466;28;20440;-49
2024/02/08 06:28:12;;;;;;;53.40;30.48;;;;;;;;;;4992854;28;20473;-52
2024/02/08 06:30:46;;;;;;;47.10;29.75;;;;;;;;;;4975803;28;20062;-49
2024/02/08 06:33:42;;;;;;;57.97;28.88;;;;;;;;;;4975038;28;20042;-48
2024/02/08 06:36:00;;;;;;;51.33;29.58;;;;;;;;;;4973819;28;20047;-49
2024/02/08 06:38:41;;;;;;;48.47;30.00;;;;;;;;;;4976488;28;20034;-51
2024/02/08 06:41:12;;;;;;;53.08;33.10;;;;;;;;;;4990359;28;20030;-49
2024/02/08 06:46:47;;;;;;;44.35;24.48;;;;;;;;;;4993981;28;20022;-47
2024/02/08 07:39:21;;;;;;;56.78;33.58;;;;;;;;;;4978596;28;20043;-50
2024/02/08 07:41:40;;;;;;;48.08;28.02;;;;;;;;;;4979385;28;20031;-49
2024/02/08 07:44:09;;;;;;;41.55;25.63;;;;;;;;;;4996773;28;20018;-49
2024/02/08 07:46:40;;;;;;;45.58;29.80;;;;;;;;;;5012875;28;20087;-49
2024/02/08 07:49:06;;;;;;;45.83;30.98;;;;;;;;;;4993486;28;20114;-50
2024/02/08 07:51:33;;;;;;;62.30;32.35;;;;;;;;;;4973699;28;20118;-52
2024/02/08 07:54:00;;;;;;;52.05;30.85;;;;;;;;;;4972574;28;20403;-48
2024/02/08 07:56:29;;;;;;;57.55;34.45;;;;;;;;;;4973718;28;20158;-48
2024/02/08 07:59:03;;;;;;;50.58;28.52;;;;;;;;;;4973715;28;20403;-48
2024/02/08 08:01:32;;;;;;;35.13;25.95;;;;;;;;;;4973761;28;20035;-52
2024/02/08 08:04:00;;;;;;;33.85;26.10;;;;;;;;;;4973637;28;20038;-49
2024/02/08 08:06:34;;;;;;;44.72;28.58;;;;;;;;;;4990131;28;20029;-47
2024/02/08 08:09:18;;;;;;;37.22;27.15;;;;;;;;;;4974546;28;20435;-49
2024/02/08 08:11:45;;;;;;;43.40;28.58;;;;;;;;;;4973608;28;20440;-48
2024/02/08 08:14:36;;;;;;;;;;;;;;;;;;4987757;28;20033;-50
2024/02/08 08:19:44;;;;;;;52.33;35.45;;;;;;;;;;4980672;28;20027;-49
2024/02/08 08:22:50;;;;;;;44.50;32.33;;;;;;;;;;4992746;28;20029;-51
2024/02/08 08:27:47;;;;;;;56.08;33.42;;;;;;;;;;4977827;28;20043;-50
2024/02/08 08:30:27;;;;;;;47.15;33.10;;;;;;;;;;4976684;28;20026;-48
2024/02/08 08:35:45;;;;;;;47.72;33.95;;;;;;;;;;4992687;28;20097;-49
2024/02/08 08:40:48;;;;;;;49.10;34.05;;;;;;;;;;4991342;28;20034;-50
2024/02/08 08:43:24;;;;;;;44.60;32.60;;;;;;;;;;4982271;28;20192;-48
2024/02/08 08:45:51;;;;;;;43.35;32.83;;;;;;;;;;4973086;28;20026;-50
2024/02/08 08:48:18;;;;;;;;;;;;;;;;;;4973529;28;20059;-48
2024/02/08 08:50:50;;;;;;;44.20;32.33;;;;;;;;;;4973143;28;19917;-53
2024/02/08 08:53:19;;;;;;;58.80;36.05;;;;;;;;;;4973013;28;20399;-50
2024/02/08 08:55:50;;;;;;;46.22;35.28;;;;;;;;;;4972730;28;20496;-47
2024/02/08 08:58:22;;;;;;;45.50;31.65;;;;;;;;;;4974585;28;20041;-49
2024/02/08 09:00:58;;;;;;;53.65;35.30;;;;;;;;;;4989473;28;20026;-51
2024/02/08 09:03:28;;;;;;;58.67;37.33;;;;;;;;;;4987593;28;20027;-49
2024/02/08 09:05:58;;;;;;;53.92;36.13;;;;;;;;;;4972686;28;20027;-49
2024/02/08 09:08:33;;;;;;;63.45;37.28;;;;;;;;;;4972843;28;20062;-50
2024/02/08 09:11:00;;;;;;;70.38;36.78;;;;;;;;;;4971603;28;20338;-48
2024/02/08 09:13:26;;;;;;;65.25;40.95;;;;;;;;;;4972588;28;20494;-48
2024/02/08 09:16:20;;;;;;;61.53;37.63;;;;;;;;;;4983290;28;20035;-51
2024/02/08 09:21:26;;;;;;;71.70;40.78;;;;;;;;;;4990939;28;20035;-52
2024/02/08 09:23:53;;;;;;;69.80;39.60;;;;;;;;;;4991918;28;20109;-51
2024/02/08 09:26:24;;;;;;;59.20;40.65;;;;;;;;;;4991870;28;20034;-48
2024/02/08 09:28:53;;;;;;;64.88;39.28;;;;;;;;;;4992067;28;20344;-50
2024/02/08 09:31:20;;;;;;;60.45;37.03;;;;;;;;;;4992003;28;20106;-48
2024/02/08 09:33:50;;;;;;;62.90;40.00;;;;;;;;;;4990538;28;20097;-48
2024/02/08 09:36:16;;;;;;;65.18;43.65;;;;;;;;;;4993584;28;20030;-49
2024/02/08 09:38:44;;;;;;;56.57;38.33;;;;;;;;;;4995896;28;20034;-53
2024/02/08 09:41:23;;;;;;;68.78;38.45;;;;;;;;;;4996110;28;20030;-49
2024/02/08 09:43:56;;;;;;;76.88;41.05;;;;;;;;;;4995692;28;20034;-52
2024/02/08 09:49:18;;;;;;;59.20;38.70;;;;;;;;;;4995715;28;20489;-49
2024/02/08 09:51:52;;;;;;;61.25;39.78;;;;;;;;;;4995614;28;20035;-55
2024/02/08 09:54:27;;;;;;;58.70;38.00;;;;;;;;;;4995539;28;20037;-51
2024/02/08 09:56:57;;;;;;;59.95;39.80;;;;;;;;;;4995307;28;20399;-54
2024/02/08 10:04:57;;;;;;;69.40;40.63;;;;;;;;;;4994848;28;20049;-51
2024/02/08 10:07:36;;;;;;;58.55;39.10;;;;;;;;;;4995137;28;20256;-51
2024/02/08 10:10:18;;;;;;;56.97;39.13;;;;;;;;;;4994191;28;20109;-49
2024/02/08 10:13:04;;;;;;;60.75;40.58;;;;;;;;;;4988495;28;20110;-54
2024/02/08 10:15:39;;;;;;;60.53;41.08;;;;;;;;;;4994879;28;20026;-54
2024/02/08 10:18:10;;;;;;;56.85;38.38;;;;;;;;;;4982941;28;20026;-50
2024/02/08 10:20:45;;;;;;;54.47;37.53;;;;;;;;;;4975505;28;20494;-48
2024/02/08 10:23:33;;;;;;;59.33;38.95;;;;;;;;;;4994473;28;20026;-50
2024/02/08 10:28:46;;;;;;;57.10;39.00;;;;;;;;;;4976024;28;20023;-51
2024/02/08 10:31:22;;;;;;;54.47;36.80;;;;;;;;;;4986222;28;20030;-54
2024/02/08 10:33:49;;;;;;;62.53;40.30;;;;;;;;;;5000556;23;20045;-49
2024/02/08 10:36:18;;;;;;;52.83;35.03;;;;;;;;;;5002756;28;20038;-49
2024/02/08 10:38:56;;;;;;;51.72;37.75;;;;;;;;;;5014357;28;20042;-46
2024/02/08 10:41:35;;;;;;;71.88;43.85;;;;;;;;;;5014363;28;20185;-48
2024/02/08 10:44:05;;;;;;;51.58;35.28;;;;;;;;;;5014159;28;20030;-46
2024/02/08 10:46:32;;;;;;;53.83;36.53;;;;;;;;;;5014050;28;20405;-46
2024/02/08 10:49:08;;;;;;;58.53;38.95;;;;;;;;;;5000161;28;20165;-49
2024/02/08 10:51:43;;;;;;;51.33;38.05;;;;;;;;;;4994613;28;20026;-47
2024/02/08 10:54:14;;;;;;;61.65;37.38;;;;;;;;;;4994984;28;20026;-50
2024/02/08 10:56:45;;;;;;;60.03;39.05;;;;;;;;;;4976607;28;20035;-47
2024/02/08 10:59:20;;;;;;;56.28;37.50;;;;;;;;;;5001635;28;20026;-47
2024/02/08 11:05:12;;;;;;;53.00;36.40;;;;;;;;;;4994313;28;20412;-48
2024/02/08 11:07:22;;;;;;;53.80;36.10;;;;;;;;;;4993412;28;20120;-47
2024/02/08 11:09:48;;;;;;;59.70;36.55;;;;;;;;;;4994252;28;20177;-46
2024/02/08 11:12:18;;;;;;;48.33;34.05;;;;;;;;;;4994154;28;20506;-46
2024/02/08 11:14:53;;;;;;;47.15;32.03;;;;;;;;;;4994064;28;20042;-47
2024/02/08 11:17:24;;;;;;;47.15;31.83;;;;;;;;;;4993974;28;20379;-47
2024/02/08 11:20:03;;;;;;;50.10;33.97;;;;;;;;;;4994073;28;20038;-49
2024/02/08 11:22:34;;;;;;;50.25;33.40;;;;;;;;;;5004431;28;20030;-48
2024/02/08 11:25:20;;;;;;;45.17;31.60;;;;;;;;;;5007375;28;20100;-48
2024/02/08 11:27:47;;;;;;;43.83;31.33;;;;;;;;;;5003896;28;20037;-47
2024/02/08 11:30:19;;;;;;;47.58;32.53;;;;;;;;;;5009571;28;20108;-47
2024/02/08 11:32:56;;;;;;;46.05;32.70;;;;;;;;;;5007667;28;20034;-47
2024/02/08 11:35:23;;;;;;;45.60;30.40;;;;;;;;;;4990016;28;20385;-47
2024/02/08 11:37:51;;;;;;;52.33;34.78;;;;;;;;;;4997938;28;20478;-49
2024/02/08 11:40:29;;;;;;;53.53;36.53;;;;;;;;;;4992117;28;20037;-47
2024/02/08 11:42:59;;;;;;;48.42;33.70;;;;;;;;;;4989904;28;20030;-47
2024/02/08 11:45:27;;;;;;;46.47;36.50;;;;;;;;;;4990614;28;20033;-47
2024/02/08 11:47:54;;;;;;;49.05;33.53;;;;;;;;;;4992038;28;20056;-47
2024/02/08 11:50:36;;;;;;;52.17;34.33;;;;;;;;;;4991988;28;20045;-47
2024/02/08 11:53:04;;;;;;;51.47;35.22;;;;;;;;;;4988727;28;20038;-50
2024/02/08 11:55:33;;;;;;;48.60;33.33;;;;;;;;;;4991648;28;20030;-47
2024/02/08 11:58:03;;;;;;;46.10;34.22;;;;;;;;;;4991596;28;20513;-47
2024/02/08 12:00:30;;;;;;;49.00;33.97;;;;;;;;;;4993185;28;20026;-48
2024/02/08 12:03:01;;;;;;;47.47;34.20;;;;;;;;;;5003860;28;20026;-47
2024/02/08 12:05:33;;;;;;;51.53;34.78;;;;;;;;;;4993110;28;20033;-47
2024/02/08 12:08:09;;;;;;;46.83;31.08;;;;;;;;;;4989674;28;20034;-50
2024/02/08 12:10:36;;;;;;;50.97;33.80;;;;;;;;;;4993750;28;20034;-47
2024/02/08 12:13:02;;;;;;;49.88;32.42;;;;;;;;;;4993057;28;20395;-46
2024/02/08 12:15:34;;;;;;;47.47;33.10;;;;;;;;;;4996274;28;20030;-48
2024/02/08 12:18:05;;;;;;;48.53;33.08;;;;;;;;;;4992157;28;20034;-50
2024/02/08 12:20:36;;;;;;;47.20;32.28;;;;;;;;;;4965195;28;20646;-48
2024/02/08 12:23:02;;;;;;;44.65;30.17;;;;;;;;;;5000053;28;20501;-47
2024/02/08 12:25:29;;;;;;;43.55;30.00;;;;;;;;;;5007667;28;20018;-49
2024/02/08 12:28:00;;;;;;;47.22;29.75;;;;;;;;;;5009352;28;20018;-49
2024/02/08 12:30:28;;;;;;;48.42;30.92;;;;;;;;;;5007609;28;20030;-48
2024/02/08 12:32:54;;;;;;;;;;;;;;;;;;4991362;28;20026;-48
2024/02/08 12:35:25;;;;;;;42.00;29.60;;;;;;;;;;4992540;28;19913;-49
2024/02/08 12:37:52;;;;;;;42.55;29.02;;;;;;;;;;4992161;28;20046;-48
2024/02/08 12:40:19;;;;;;;37.28;27.58;;;;;;;;;;5001431;28;20068;-48
2024/02/08 12:42:46;;;;;;;39.85;27.23;;;;;;;;;;4993967;28;20502;-47
2024/02/08 12:45:15;;;;;;;41.35;27.88;;;;;;;;;;5007376;28;20018;-52
2024/02/08 12:47:41;;;;;;;38.08;27.73;;;;;;;;;;4990987;28;20490;-47
2024/02/08 12:50:11;;;;;;;38.65;28.05;;;;;;;;;;5003238;28;20532;-50
2024/02/08 12:52:40;;;;;;;37.42;27.88;;;;;;;;;;5008630;28;20033;-47
2024/02/08 12:55:13;;;;;;;36.35;27.10;;;;;;;;;;4996086;28;20032;-47
2024/02/08 12:57:40;;;;;;;35.92;26.48;;;;;;;;;;4990860;28;20030;-48
2024/02/08 13:00:13;;;;;;;;;;;;;;;;;;5001194;28;20042;-48
2024/02/08 13:02:40;;;;;;;36.03;27.08;;;;;;;;;;5002582;28;19955;-47
2024/02/08 13:05:07;;;;;;;37.90;26.98;;;;;;;;;;5010338;28;20096;-49
2024/02/08 13:07:36;;;;;;;36.47;26.50;;;;;;;;;;5000536;28;20041;-48
2024/02/08 13:10:14;;;;;;;37.90;25.83;;;;;;;;;;5003853;28;20391;-49
2024/02/08 13:12:41;;;;;;;38.42;27.27;;;;;;;;;;5002051;28;20038;-47
2024/02/08 13:15:07;;;;;;;36.87;27.00;;;;;;;;;;5002776;28;20033;-47
2024/02/08 13:17:34;;;;;;;34.87;27.00;;;;;;;;;;4996128;28;20549;-48
2024/02/08 13:20:11;;;;;;;37.15;25.42;;;;;;;;;;4998495;28;20780;-47
2024/02/08 13:22:37;;;;;;;36.83;27.73;;;;;;;;;;5014060;28;20034;-48
2024/02/08 13:25:11;;;;;;;38.05;27.88;;;;;;;;;;5014001;28;20061;-48
2024/02/08 13:27:38;;;;;;;38.85;28.17;;;;;;;;;;5013948;28;20336;-47
2024/02/08 13:30:15;;;;;;;38.35;27.45;;;;;;;;;;5003789;28;20495;-47
2024/02/08 13:32:45;;;;;;;40.33;26.48;;;;;;;;;;5010519;28;20521;-48
2024/02/08 13:35:18;;;;;;;39.92;27.55;;;;;;;;;;5006437;28;20046;-47
2024/02/08 13:37:52;;;;;;;34.10;24.65;;;;;;;;;;5011379;28;20048;-47
2024/02/08 13:40:19;;;;;;;35.10;25.40;;;;;;;;;;5012153;28;20128;-50
2024/02/08 13:42:47;;;;;;;40.40;27.33;;;;;;;;;;5003199;28;20079;-49
2024/02/08 13:45:14;;;;;;;36.28;26.83;;;;;;;;;;5011485;28;20027;-50
2024/02/08 13:47:42;;;;;;;36.20;25.77;;;;;;;;;;5013781;28;20088;-49
2024/02/08 13:50:11;;;;;;;42.08;27.27;;;;;;;;;;5013998;28;20261;-48
2024/02/08 13:52:38;;;;;;;38.47;25.25;;;;;;;;;;5013899;28;20085;-48
2024/02/08 13:55:17;;;;;;;37.17;24.25;;;;;;;;;;5014592;28;20390;-47
2024/02/08 13:57:49;;;;;;;41.30;26.17;;;;;;;;;;5015106;28;20040;-47
2024/02/08 14:00:20;;;;;;;42.20;24.60;;;;;;;;;;5014948;28;20048;-48
2024/02/08 14:02:49;;;;;;;35.05;24.98;;;;;;;;;;5014061;28;20562;-48
2024/02/08 14:05:19;;;;;;;46.58;27.52;;;;;;;;;;5014583;28;20087;-51
2024/02/08 14:07:48;;;;;;;45.17;25.92;;;;;;;;;;5013657;28;20533;-48
2024/02/08 14:10:18;;;;;;;36.00;24.17;;;;;;;;;;5013597;28;20100;-50
2024/02/08 14:12:45;;;;;;;34.53;24.75;;;;;;;;;;5014701;28;20036;-48
2024/02/08 14:15:16;;;;;;;41.00;25.00;;;;;;;;;;5014670;28;20087;-48
2024/02/08 14:17:53;;;;;;;37.38;26.08;;;;;;;;;;5014836;28;20040;-46
2024/02/08 14:20:30;;;;;;;35.35;24.60;;;;;;;;;;5014626;28;20030;-47
2024/02/08 14:22:59;;;;;;;34.37;25.27;;;;;;;;;;5014465;28;20026;-47
2024/02/08 14:25:37;;;;;;;38.47;24.40;;;;;;;;;;4996255;28;20030;-48
2024/02/08 14:28:09;;;;;;;39.05;25.35;;;;;;;;;;5010089;28;20027;-48
2024/02/08 14:30:36;;;;;;;36.67;24.42;;;;;;;;;;5001226;28;20152;-48
2024/02/08 14:33:02;;;;;;;35.92;24.38;;;;;;;;;;5002783;28;20036;-48
2024/02/08 14:35:31;;;;;;;37.80;23.67;;;;;;;;;;5001890;28;20041;-47
2024/02/08 14:38:16;;;;;;;37.20;22.77;;;;;;;;;;4991300;28;20513;-49
2024/02/08 14:40:42;;;;;;;36.25;24.35;;;;;;;;;;4999091;28;20088;-49
2024/02/08 14:43:08;;;;;;;41.25;24.40;;;;;;;;;;5004062;28;20053;-48
2024/02/08 14:45:35;;;;;;;35.42;23.42;;;;;;;;;;4993875;28;20050;-48
2024/02/08 14:48:11;;;;;;;40.42;23.95;;;;;;;;;;4976195;28;20121;-48
2024/02/08 14:53:32;;;;;;;34.17;22.73;;;;;;;;;;5001036;28;20045;-47
2024/02/08 14:56:01;;;;;;;32.63;22.63;;;;;;;;;;4993333;28;20041;-48
2024/02/08 14:58:33;;;;;;;34.13;22.17;;;;;;;;;;4994745;28;20105;-46
2024/02/08 15:01:08;;;;;;;34.22;24.52;;;;;;;;;;4994448;28;20138;-47
2024/02/08 15:03:49;;;;;;;36.25;26.60;;;;;;;;;;4993038;28;20113;-47
2024/02/08 15:14:41;;;;;;;34.88;25.30;;;;;;;;;;4994419;28;20022;-47
2024/02/08 15:17:08;;;;;;;40.00;25.77;;;;;;;;;;4992828;28;20072;-47
2024/02/08 15:19:46;;;;;;;53.33;25.98;;;;;;;;;;4993910;28;20073;-47
2024/02/08 15:22:46;;;;;;;46.40;26.45;;;;;;;;;;4994053;28;20419;-47
2024/02/08 15:25:06;;;;;;;42.20;26.10;;;;;;;;;;4992396;28;20069;-48
2024/02/08 15:30:19;;;;;;;38.60;27.45;;;;;;;;;;4993937;28;20034;-47
2024/02/08 15:32:58;;;;;;;41.50;27.20;;;;;;;;;;4993666;28;20109;-47
2024/02/08 15:35:38;;;;;;;38.05;25.92;;;;;;;;;;4993002;28;20118;-48
2024/02/08 15:40:55;;;;;;;40.95;27.55;;;;;;;;;;4985681;28;20427;-50
2024/02/08 15:43:25;;;;;;;43.75;26.13;;;;;;;;;;4972456;28;20030;-46
2024/02/08 15:45:55;;;;;;;39.40;26.10;;;;;;;;;;4991232;28;20039;-47
2024/02/08 15:48:33;;;;;;;43.83;28.58;;;;;;;;;;4992306;28;20034;-47
2024/02/08 15:51:08;;;;;;;38.50;26.33;;;;;;;;;;4993753;28;20508;-47
2024/02/08 15:53:50;;;;;;;43.40;27.15;;;;;;;;;;4993100;28;20030;-48
2024/02/08 15:56:20;;;;;;;43.33;27.38;;;;;;;;;;4991490;28;20110;-47
2024/02/08 15:58:50;;;;;;;44.28;29.02;;;;;;;;;;4993287;28;20088;-47
2024/02/08 16:01:48;;;;;;;41.30;29.33;;;;;;;;;;4993226;28;20380;-47
2024/02/08 16:07:17;;;;;;;50.25;26.90;;;;;;;;;;5016033;28;20033;-52
2024/02/08 16:09:48;;;;;;;42.55;27.08;;;;;;;;;;5010222;28;20072;-49
2024/02/08 16:12:23;;;;;;;36.33;25.48;;;;;;;;;;5003149;28;20045;-49
2024/02/08 16:14:59;;;;;;;42.25;25.30;;;;;;;;;;5002229;28;20034;-49
2024/02/08 16:22:52;;;;;;;47.63;26.95;;;;;;;;;;5002976;28;20050;-48
2024/02/08 16:25:38;;;;;;;35.10;26.35;;;;;;;;;;5000055;28;20070;-47
2024/02/08 16:28:20;;;;;;;46.30;27.30;;;;;;;;;;4990755;28;20398;-47
2024/02/08 16:33:46;;;;;;;39.90;26.45;;;;;;;;;;5004285;28;20037;-48
2024/02/08 16:44:50;;;;;;;42.10;29.30;;;;;;;;;;4993088;28;20109;-60
2024/02/08 16:47:34;;;;;;;46.47;30.17;;;;;;;;;;5000883;28;20040;-60
2024/02/08 16:50:16;;;;;;;43.17;30.73;;;;;;;;;;5010483;28;20061;-59
2024/02/08 16:52:46;;;;;;;52.67;29.30;;;;;;;;;;4993110;28;20042;-59
2024/02/08 16:55:21;;;;;;;42.35;29.67;;;;;;;;;;4980615;28;20036;-61
2024/02/08 16:58:00;;;;;;;44.80;30.05;;;;;;;;;;5007464;28;20065;-61
2024/02/08 17:00:38;;;;;;;49.78;32.90;;;;;;;;;;4996275;28;20096;-61
2024/02/08 17:03:05;;;;;;;43.15;31.42;;;;;;;;;;5004467;28;20030;-61
2024/02/08 17:05:53;;;;;;;42.42;30.80;;;;;;;;;;5010350;28;20026;-59
2024/02/08 17:08:22;;;;;;;41.78;29.85;;;;;;;;;;4992380;28;20057;-60
2024/02/08 17:10:55;;;;;;;47.30;31.27;;;;;;;;;;5008475;28;20056;-61
2024/02/08 17:13:27;;;;;;;41.78;29.48;;;;;;;;;;4998426;28;20037;-61
2024/02/08 17:16:45;;;;;;;39.05;27.75;;;;;;;;;;4996450;28;20026;-61
2024/02/08 17:19:10;;;;;;;44.75;29.52;;;;;;;;;;5010167;28;20032;-61
2024/02/08 17:21:44;;;;;;;43.83;29.25;;;;;;;;;;4995498;28;20037;-61